sensor_id;sensor_type;location;lat;lon;timestamp;temperature;humidity
28520;DHT22;15732;48.534;20.382;2023-03-05T00:01:39;2.20;99.90
28520;DHT22;15732;48.534;20.382;2023-03-05T00:04:08;2.20;99.90
28520;DHT22;15732;48.534;20.382;2023-03-05T00:06:39;2.20;99.90
28520;DHT22;15732;48.534;20.382;2023-03-05T00:09:07;2.30;99.90
28520;DHT22;15732;48.534;20.382;2023-03-05T00:11:34;2.30;99.90
28520;DHT22;15732;48.534;20.382;2023-03-05T00:14:02;2.20;99.90
28520;DHT22;15732;48.534;20.382;2023-03-05T00:16:30;2.20;99.90
28520;DHT22;15732;48.534;20.382;2023-03-05T00:18:58;2.20;99.90
28520;DHT22;15732;48.534;20.382;2023-03-05T00:21:34;2.20;99.90
28520;DHT22;15732;48.534;20.382;2023-03-05T00:24:04;2.20;99.90
28520;DHT22;15732;48.534;20.382;2023-03-05T00:26:35;2.20;99.90
28520;DHT22;15732;48.534;20.382;2023-03-05T00:29:03;2.20;99.90
28520;DHT22;15732;48.534;20.382;2023-03-05T00:31:34;2.20;99.90
28520;DHT22;15732;48.534;20.382;2023-03-05T00:34:05;2.00;99.90
28520;DHT22;15732;48.534;20.382;2023-03-05T00:36:32;1.90;99.90
28520;DHT22;15732;48.534;20.382;2023-03-05T00:39:03;1.80;99.90
28520;DHT22;15732;48.534;20.382;2023-03-05T00:41:34;1.70;99.90
28520;DHT22;15732;48.534;20.382;2023-03-05T00:44:06;1.70;99.90
28520;DHT22;15732;48.534;20.382;2023-03-05T00:46:33;1.70;99.90
28520;DHT22;15732;48.534;20.382;2023-03-05T00:49:00;1.70;99.90
28520;DHT22;15732;48.534;20.382;2023-03-05T00:51:32;1.80;99.90
28520;DHT22;15732;48.534;20.382;2023-03-05T00:54:03;1.80;99.90
28520;DHT22;15732;48.534;20.382;2023-03-05T00:56:31;1.80;99.90
28520;DHT22;15732;48.534;20.382;2023-03-05T00:59:02;1.80;99.90
28520;DHT22;15732;48.534;20.382;2023-03-05T01:01:32;1.80;99.90
28520;DHT22;15732;48.534;20.382;2023-03-05T01:03:59;1.90;99.90
28520;DHT22;15732;48.534;20.382;2023-03-05T01:06:30;1.90;99.90
28520;DHT22;15732;48.534;20.382;2023-03-05T01:08:58;1.90;99.90
28520;DHT22;15732;48.534;20.382;2023-03-05T01:11:25;1.90;99.90
28520;DHT22;15732;48.534;20.382;2023-03-05T01:13:53;1.80;99.90
28520;DHT22;15732;48.534;20.382;2023-03-05T01:16:20;1.80;99.90
28520;DHT22;15732;48.534;20.382;2023-03-05T01:18:48;1.80;99.90
28520;DHT22;15732;48.534;20.382;2023-03-05T01:21:15;1.80;99.90
28520;DHT22;15732;48.534;20.382;2023-03-05T01:23:46;1.70;99.90
28520;DHT22;15732;48.534;20.382;2023-03-05T01:26:13;1.60;99.90
28520;DHT22;15732;48.534;20.382;2023-03-05T01:28:45;1.50;99.90
28520;DHT22;15732;48.534;20.382;2023-03-05T01:31:12;1.50;99.90
28520;DHT22;15732;48.534;20.382;2023-03-05T01:33:39;1.40;99.90
28520;DHT22;15732;48.534;20.382;2023-03-05T01:36:08;1.30;99.90
28520;DHT22;15732;48.534;20.382;2023-03-05T01:38:38;1.30;99.90
28520;DHT22;15732;48.534;20.382;2023-03-05T01:41:10;1.10;99.90
28520;DHT22;15732;48.534;20.382;2023-03-05T01:43:38;1.00;99.90
28520;DHT22;15732;48.534;20.382;2023-03-05T01:49:00;0.80;99.90
28520;DHT22;15732;48.534;20.382;2023-03-05T01:51:32;0.80;99.90
28520;DHT22;15732;48.534;20.382;2023-03-05T01:54:02;0.90;99.90
28520;DHT22;15732;48.534;20.382;2023-03-05T01:56:29;1.00;99.90
28520;DHT22;15732;48.534;20.382;2023-03-05T01:58:58;1.10;99.90
28520;DHT22;15732;48.534;20.382;2023-03-05T02:01:40;1.10;99.90
28520;DHT22;15732;48.534;20.382;2023-03-05T02:04:29;1.20;99.90
28520;DHT22;15732;48.534;20.382;2023-03-05T02:06:57;1.20;99.90
28520;DHT22;15732;48.534;20.382;2023-03-05T02:09:26;1.10;99.90
28520;DHT22;15732;48.534;20.382;2023-03-05T02:11:54;1.10;99.90
28520;DHT22;15732;48.534;20.382;2023-03-05T02:14:21;1.20;99.90
28520;DHT22;15732;48.534;20.382;2023-03-05T02:16:50;1.20;99.90
28520;DHT22;15732;48.534;20.382;2023-03-05T02:19:21;1.20;99.90
28520;DHT22;15732;48.534;20.382;2023-03-05T02:21:49;1.30;99.90
28520;DHT22;15732;48.534;20.382;2023-03-05T02:24:33;1.30;99.90
28520;DHT22;15732;48.534;20.382;2023-03-05T02:27:02;1.30;99.90
28520;DHT22;15732;48.534;20.382;2023-03-05T02:29:36;1.30;99.90
28520;DHT22;15732;48.534;20.382;2023-03-05T02:32:04;1.40;99.90
28520;DHT22;15732;48.534;20.382;2023-03-05T02:34:32;1.30;99.90
28520;DHT22;15732;48.534;20.382;2023-03-05T02:37:00;1.30;99.90
28520;DHT22;15732;48.534;20.382;2023-03-05T02:39:30;1.40;99.90
28520;DHT22;15732;48.534;20.382;2023-03-05T02:42:02;1.40;99.90
28520;DHT22;15732;48.534;20.382;2023-03-05T02:44:30;1.40;99.90
28520;DHT22;15732;48.534;20.382;2023-03-05T02:46:57;1.30;99.90
28520;DHT22;15732;48.534;20.382;2023-03-05T02:49:28;1.20;99.90
28520;DHT22;15732;48.534;20.382;2023-03-05T02:51:55;1.10;99.90
28520;DHT22;15732;48.534;20.382;2023-03-05T02:54:22;1.10;99.90
28520;DHT22;15732;48.534;20.382;2023-03-05T02:56:50;1.20;99.90
28520;DHT22;15732;48.534;20.382;2023-03-05T02:59:17;1.20;99.90
28520;DHT22;15732;48.534;20.382;2023-03-05T03:01:48;1.10;99.90
28520;DHT22;15732;48.534;20.382;2023-03-05T03:04:16;1.00;99.90
28520;DHT22;15732;48.534;20.382;2023-03-05T03:06:47;1.00;99.90
28520;DHT22;15732;48.534;20.382;2023-03-05T03:09:15;1.00;99.90
28520;DHT22;15732;48.534;20.382;2023-03-05T03:11:42;1.00;99.90
28520;DHT22;15732;48.534;20.382;2023-03-05T03:14:14;1.00;99.90
28520;DHT22;15732;48.534;20.382;2023-03-05T03:16:40;0.90;99.90
28520;DHT22;15732;48.534;20.382;2023-03-05T03:19:08;0.90;99.90
28520;DHT22;15732;48.534;20.382;2023-03-05T03:21:35;1.00;99.90
28520;DHT22;15732;48.534;20.382;2023-03-05T03:24:03;1.00;99.90
28520;DHT22;15732;48.534;20.382;2023-03-05T03:26:31;1.00;99.90
28520;DHT22;15732;48.534;20.382;2023-03-05T03:29:02;1.00;99.90
28520;DHT22;15732;48.534;20.382;2023-03-05T03:31:29;1.00;99.90
28520;DHT22;15732;48.534;20.382;2023-03-05T03:33:57;1.00;99.90
28520;DHT22;15732;48.534;20.382;2023-03-05T03:36:24;1.00;99.90
28520;DHT22;15732;48.534;20.382;2023-03-05T03:38:52;1.00;99.90
28520;DHT22;15732;48.534;20.382;2023-03-05T03:41:19;1.10;99.90
28520;DHT22;15732;48.534;20.382;2023-03-05T03:43:46;1.10;99.90
28520;DHT22;15732;48.534;20.382;2023-03-05T03:46:14;1.10;99.90
28520;DHT22;15732;48.534;20.382;2023-03-05T03:48:41;1.20;99.90
28520;DHT22;15732;48.534;20.382;2023-03-05T03:51:09;1.10;99.90
28520;DHT22;15732;48.534;20.382;2023-03-05T03:53:36;1.10;99.90
28520;DHT22;15732;48.534;20.382;2023-03-05T03:56:08;1.00;99.90
28520;DHT22;15732;48.534;20.382;2023-03-05T03:58:39;1.00;99.90
28520;DHT22;15732;48.534;20.382;2023-03-05T04:01:09;1.00;99.90
28520;DHT22;15732;48.534;20.382;2023-03-05T04:03:37;1.00;99.90
28520;DHT22;15732;48.534;20.382;2023-03-05T04:06:05;1.10;99.90
28520;DHT22;15732;48.534;20.382;2023-03-05T04:08:33;1.10;99.90
28520;DHT22;15732;48.534;20.382;2023-03-05T04:11:04;1.10;99.90
28520;DHT22;15732;48.534;20.382;2023-03-05T04:13:31;1.20;99.90
28520;DHT22;15732;48.534;20.382;2023-03-05T04:16:02;1.10;99.90
28520;DHT22;15732;48.534;20.382;2023-03-05T04:18:30;1.00;99.90
28520;DHT22;15732;48.534;20.382;2023-03-05T04:21:02;1.00;99.90
28520;DHT22;15732;48.534;20.382;2023-03-05T04:23:29;1.00;99.90
28520;DHT22;15732;48.534;20.382;2023-03-05T04:25:56;1.00;99.90
28520;DHT22;15732;48.534;20.382;2023-03-05T04:28:23;1.00;99.90
28520;DHT22;15732;48.534;20.382;2023-03-05T04:30:54;0.90;99.90
28520;DHT22;15732;48.534;20.382;2023-03-05T04:33:22;0.90;99.90
28520;DHT22;15732;48.534;20.382;2023-03-05T04:35:52;0.90;99.90
28520;DHT22;15732;48.534;20.382;2023-03-05T04:38:20;0.80;99.90
28520;DHT22;15732;48.534;20.382;2023-03-05T04:40:46;0.90;99.90
28520;DHT22;15732;48.534;20.382;2023-03-05T04:43:13;1.00;99.90
28520;DHT22;15732;48.534;20.382;2023-03-05T04:45:44;1.00;99.90
28520;DHT22;15732;48.534;20.382;2023-03-05T04:48:11;1.00;99.90
28520;DHT22;15732;48.534;20.382;2023-03-05T04:50:43;1.00;99.90
28520;DHT22;15732;48.534;20.382;2023-03-05T04:53:10;1.10;99.90
28520;DHT22;15732;48.534;20.382;2023-03-05T04:55:42;1.20;99.90
28520;DHT22;15732;48.534;20.382;2023-03-05T04:58:09;1.20;99.90
28520;DHT22;15732;48.534;20.382;2023-03-05T05:00:36;1.20;99.90
28520;DHT22;15732;48.534;20.382;2023-03-05T05:03:04;1.20;99.90
28520;DHT22;15732;48.534;20.382;2023-03-05T05:05:35;1.20;99.90
28520;DHT22;15732;48.534;20.382;2023-03-05T05:08:03;1.20;99.90
28520;DHT22;15732;48.534;20.382;2023-03-05T05:10:30;1.30;99.90
28520;DHT22;15732;48.534;20.382;2023-03-05T05:12:58;1.20;99.90
28520;DHT22;15732;48.534;20.382;2023-03-05T05:15:25;1.30;99.90
28520;DHT22;15732;48.534;20.382;2023-03-05T05:17:53;1.30;99.90
28520;DHT22;15732;48.534;20.382;2023-03-05T05:20:20;1.30;99.90
28520;DHT22;15732;48.534;20.382;2023-03-05T05:22:48;1.30;99.90
28520;DHT22;15732;48.534;20.382;2023-03-05T05:25:16;1.20;99.90
28520;DHT22;15732;48.534;20.382;2023-03-05T05:27:43;1.10;99.90
28520;DHT22;15732;48.534;20.382;2023-03-05T05:30:12;1.10;99.90
28520;DHT22;15732;48.534;20.382;2023-03-05T05:32:39;1.00;99.90
28520;DHT22;15732;48.534;20.382;2023-03-05T05:35:08;1.00;99.90
28520;DHT22;15732;48.534;20.382;2023-03-05T05:37:35;0.90;99.90
28520;DHT22;15732;48.534;20.382;2023-03-05T05:40:02;1.00;99.90
28520;DHT22;15732;48.534;20.382;2023-03-05T05:42:31;1.00;99.90
28520;DHT22;15732;48.534;20.382;2023-03-05T05:44:59;1.00;99.90
28520;DHT22;15732;48.534;20.382;2023-03-05T05:47:28;1.10;99.90
28520;DHT22;15732;48.534;20.382;2023-03-05T05:49:59;1.10;99.90
28520;DHT22;15732;48.534;20.382;2023-03-05T05:52:27;1.20;99.90
28520;DHT22;15732;48.534;20.382;2023-03-05T05:54:54;1.20;99.90
28520;DHT22;15732;48.534;20.382;2023-03-05T05:57:21;1.20;99.90
28520;DHT22;15732;48.534;20.382;2023-03-05T05:59:49;1.20;99.90
28520;DHT22;15732;48.534;20.382;2023-03-05T06:02:16;1.30;99.90
28520;DHT22;15732;48.534;20.382;2023-03-05T06:04:43;1.30;99.90
28520;DHT22;15732;48.534;20.382;2023-03-05T06:07:11;1.30;99.90
28520;DHT22;15732;48.534;20.382;2023-03-05T06:09:38;1.30;99.90
28520;DHT22;15732;48.534;20.382;2023-03-05T06:12:07;1.30;99.90
28520;DHT22;15732;48.534;20.382;2023-03-05T06:14:34;1.30;99.90
28520;DHT22;15732;48.534;20.382;2023-03-05T06:17:01;1.40;99.90
28520;DHT22;15732;48.534;20.382;2023-03-05T06:19:29;1.40;99.90
28520;DHT22;15732;48.534;20.382;2023-03-05T06:21:56;1.40;99.90
28520;DHT22;15732;48.534;20.382;2023-03-05T06:24:24;1.40;99.90
28520;DHT22;15732;48.534;20.382;2023-03-05T06:26:51;1.50;99.90
28520;DHT22;15732;48.534;20.382;2023-03-05T06:29:18;1.50;99.90
28520;DHT22;15732;48.534;20.382;2023-03-05T06:31:46;1.50;99.90
28520;DHT22;15732;48.534;20.382;2023-03-05T06:34:13;1.50;99.90
28520;DHT22;15732;48.534;20.382;2023-03-05T06:36:41;1.60;99.90
28520;DHT22;15732;48.534;20.382;2023-03-05T06:39:09;1.40;99.90
28520;DHT22;15732;48.534;20.382;2023-03-05T06:41:40;1.40;99.90
28520;DHT22;15732;48.534;20.382;2023-03-05T06:44:08;1.40;99.90
28520;DHT22;15732;48.534;20.382;2023-03-05T06:46:39;1.40;99.90
28520;DHT22;15732;48.534;20.382;2023-03-05T06:49:06;1.40;99.90
28520;DHT22;15732;48.534;20.382;2023-03-05T06:51:37;1.40;99.90
28520;DHT22;15732;48.534;20.382;2023-03-05T06:54:12;1.40;99.90
28520;DHT22;15732;48.534;20.382;2023-03-05T06:56:41;1.40;99.90
28520;DHT22;15732;48.534;20.382;2023-03-05T06:59:10;1.40;99.90
28520;DHT22;15732;48.534;20.382;2023-03-05T07:01:38;1.50;99.90
28520;DHT22;15732;48.534;20.382;2023-03-05T07:04:10;1.50;99.90
28520;DHT22;15732;48.534;20.382;2023-03-05T07:06:38;1.50;99.90
28520;DHT22;15732;48.534;20.382;2023-03-05T07:09:07;1.50;99.90
28520;DHT22;15732;48.534;20.382;2023-03-05T07:11:34;1.50;99.90
28520;DHT22;15732;48.534;20.382;2023-03-05T07:14:02;1.60;99.90
28520;DHT22;15732;48.534;20.382;2023-03-05T07:16:31;1.60;99.90
28520;DHT22;15732;48.534;20.382;2023-03-05T07:19:00;1.60;99.90
28520;DHT22;15732;48.534;20.382;2023-03-05T07:21:32;1.60;99.90
28520;DHT22;15732;48.534;20.382;2023-03-05T07:24:00;1.70;99.90
28520;DHT22;15732;48.534;20.382;2023-03-05T07:26:30;1.80;99.90
28520;DHT22;15732;48.534;20.382;2023-03-05T07:29:02;1.80;99.90
28520;DHT22;15732;48.534;20.382;2023-03-05T07:31:33;1.80;99.90
28520;DHT22;15732;48.534;20.382;2023-03-05T07:34:01;1.90;99.90
28520;DHT22;15732;48.534;20.382;2023-03-05T07:36:29;1.90;99.90
28520;DHT22;15732;48.534;20.382;2023-03-05T07:38:57;2.00;99.90
28520;DHT22;15732;48.534;20.382;2023-03-05T07:41:28;2.00;99.90
28520;DHT22;15732;48.534;20.382;2023-03-05T07:43:55;2.00;99.90
28520;DHT22;15732;48.534;20.382;2023-03-05T07:46:25;2.00;99.90
28520;DHT22;15732;48.534;20.382;2023-03-05T07:48:53;2.10;99.90
28520;DHT22;15732;48.534;20.382;2023-03-05T07:51:21;2.10;99.90
28520;DHT22;15732;48.534;20.382;2023-03-05T07:53:54;2.20;99.90
28520;DHT22;15732;48.534;20.382;2023-03-05T07:59:03;2.20;99.90
28520;DHT22;15732;48.534;20.382;2023-03-05T08:01:35;2.10;99.90
28520;DHT22;15732;48.534;20.382;2023-03-05T08:04:03;2.10;99.90
28520;DHT22;15732;48.534;20.382;2023-03-05T08:06:31;2.00;99.90
28520;DHT22;15732;48.534;20.382;2023-03-05T08:09:01;2.00;99.90
28520;DHT22;15732;48.534;20.382;2023-03-05T08:11:29;2.00;99.90
28520;DHT22;15732;48.534;20.382;2023-03-05T08:14:00;2.00;99.90
28520;DHT22;15732;48.534;20.382;2023-03-05T08:16:27;2.00;99.90
28520;DHT22;15732;48.534;20.382;2023-03-05T08:18:55;2.00;99.90
28520;DHT22;15732;48.534;20.382;2023-03-05T08:21:34;2.10;99.90
28520;DHT22;15732;48.534;20.382;2023-03-05T08:24:03;2.10;99.90
28520;DHT22;15732;48.534;20.382;2023-03-05T08:26:34;2.20;99.90
28520;DHT22;15732;48.534;20.382;2023-03-05T08:29:04;2.20;99.90
28520;DHT22;15732;48.534;20.382;2023-03-05T08:31:31;2.30;99.90
28520;DHT22;15732;48.534;20.382;2023-03-05T08:34:02;2.40;99.90
28520;DHT22;15732;48.534;20.382;2023-03-05T08:36:30;2.40;99.90
28520;DHT22;15732;48.534;20.382;2023-03-05T08:38:57;2.50;99.90
28520;DHT22;15732;48.534;20.382;2023-03-05T08:41:25;2.60;99.90
28520;DHT22;15732;48.534;20.382;2023-03-05T08:43:52;2.70;99.90
28520;DHT22;15732;48.534;20.382;2023-03-05T08:46:24;2.70;99.90
28520;DHT22;15732;48.534;20.382;2023-03-05T08:48:51;2.80;99.90
28520;DHT22;15732;48.534;20.382;2023-03-05T08:51:22;2.90;99.90
28520;DHT22;15732;48.534;20.382;2023-03-05T08:53:52;2.90;99.90
28520;DHT22;15732;48.534;20.382;2023-03-05T08:56:20;3.00;99.90
28520;DHT22;15732;48.534;20.382;2023-03-05T08:58:52;3.00;99.90
28520;DHT22;15732;48.534;20.382;2023-03-05T09:01:18;3.10;99.90
28520;DHT22;15732;48.534;20.382;2023-03-05T09:03:46;3.20;99.90
28520;DHT22;15732;48.534;20.382;2023-03-05T09:06:13;3.20;99.90
28520;DHT22;15732;48.534;20.382;2023-03-05T09:08:41;3.30;99.90
28520;DHT22;15732;48.534;20.382;2023-03-05T09:11:10;3.30;99.90
28520;DHT22;15732;48.534;20.382;2023-03-05T09:13:38;3.40;99.90
28520;DHT22;15732;48.534;20.382;2023-03-05T09:16:07;3.40;99.90
28520;DHT22;15732;48.534;20.382;2023-03-05T09:18:34;3.50;99.90
28520;DHT22;15732;48.534;20.382;2023-03-05T09:21:07;3.50;99.90
28520;DHT22;15732;48.534;20.382;2023-03-05T09:23:34;3.60;99.90
28520;DHT22;15732;48.534;20.382;2023-03-05T09:26:07;3.60;99.90
28520;DHT22;15732;48.534;20.382;2023-03-05T09:28:35;3.60;99.90
28520;DHT22;15732;48.534;20.382;2023-03-05T09:31:22;3.70;99.90
28520;DHT22;15732;48.534;20.382;2023-03-05T09:33:49;3.70;99.90
28520;DHT22;15732;48.534;20.382;2023-03-05T09:38:44;3.80;99.90
28520;DHT22;15732;48.534;20.382;2023-03-05T09:52:35;3.90;99.90
28520;DHT22;15732;48.534;20.382;2023-03-05T09:55:13;3.90;99.90
28520;DHT22;15732;48.534;20.382;2023-03-05T09:57:51;3.90;99.90
28520;DHT22;15732;48.534;20.382;2023-03-05T10:00:40;4.00;99.90
28520;DHT22;15732;48.534;20.382;2023-03-05T10:03:27;4.00;99.90
28520;DHT22;15732;48.534;20.382;2023-03-05T10:06:29;4.00;99.90
28520;DHT22;15732;48.534;20.382;2023-03-05T10:09:02;4.10;99.90
28520;DHT22;15732;48.534;20.382;2023-03-05T10:14:01;4.10;99.90
28520;DHT22;15732;48.534;20.382;2023-03-05T10:27:20;4.30;99.90
28520;DHT22;15732;48.534;20.382;2023-03-05T10:30:03;4.30;99.90
28520;DHT22;15732;48.534;20.382;2023-03-05T10:33:11;4.30;99.90
28520;DHT22;15732;48.534;20.382;2023-03-05T10:36:44;4.40;99.90
28520;DHT22;15732;48.534;20.382;2023-03-05T10:38:44;4.40;99.90
28520;DHT22;15732;48.534;20.382;2023-03-05T10:44:51;4.50;99.90
28520;DHT22;15732;48.534;20.382;2023-03-05T10:47:26;4.50;99.90
28520;DHT22;15732;48.534;20.382;2023-03-05T10:49:55;4.60;99.90
28520;DHT22;15732;48.534;20.382;2023-03-05T10:52:34;4.60;99.90
28520;DHT22;15732;48.534;20.382;2023-03-05T10:55:17;4.70;99.90
28520;DHT22;15732;48.534;20.382;2023-03-05T10:57:44;4.70;99.90
28520;DHT22;15732;48.534;20.382;2023-03-05T11:00:22;4.80;99.90
28520;DHT22;15732;48.534;20.382;2023-03-05T11:03:00;4.80;99.90
28520;DHT22;15732;48.534;20.382;2023-03-05T11:05:41;4.90;99.90
28520;DHT22;15732;48.534;20.382;2023-03-05T11:11:10;5.00;99.90
28520;DHT22;15732;48.534;20.382;2023-03-05T11:13:58;5.00;99.90
28520;DHT22;15732;48.534;20.382;2023-03-05T11:16:28;5.00;99.90
28520;DHT22;15732;48.534;20.382;2023-03-05T11:21:41;5.00;99.90
28520;DHT22;15732;48.534;20.382;2023-03-05T11:24:17;5.00;99.90
28520;DHT22;15732;48.534;20.382;2023-03-05T11:27:20;5.10;99.90
28520;DHT22;15732;48.534;20.382;2023-03-05T11:29:48;5.20;99.90
28520;DHT22;15732;48.534;20.382;2023-03-05T11:32:20;5.20;99.90
28520;DHT22;15732;48.534;20.382;2023-03-05T11:34:48;5.20;99.90
28520;DHT22;15732;48.534;20.382;2023-03-05T11:37:23;5.20;99.90
28520;DHT22;15732;48.534;20.382;2023-03-05T11:40:13;5.20;99.90
28520;DHT22;15732;48.534;20.382;2023-03-05T11:42:41;5.30;99.90
28520;DHT22;15732;48.534;20.382;2023-03-05T11:45:16;5.30;99.90
28520;DHT22;15732;48.534;20.382;2023-03-05T11:47:52;5.40;99.90
28520;DHT22;15732;48.534;20.382;2023-03-05T11:50:28;5.40;99.90
28520;DHT22;15732;48.534;20.382;2023-03-05T11:53:10;5.40;99.90
28520;DHT22;15732;48.534;20.382;2023-03-05T11:58:53;5.50;99.90
28520;DHT22;15732;48.534;20.382;2023-03-05T12:01:24;5.60;99.90
28520;DHT22;15732;48.534;20.382;2023-03-05T12:03:55;5.60;99.90
28520;DHT22;15732;48.534;20.382;2023-03-05T12:06:39;5.70;99.90
28520;DHT22;15732;48.534;20.382;2023-03-05T12:09:20;5.70;99.90
28520;DHT22;15732;48.534;20.382;2023-03-05T12:11:53;5.70;99.90
28520;DHT22;15732;48.534;20.382;2023-03-05T12:14:29;5.80;99.90
28520;DHT22;15732;48.534;20.382;2023-03-05T12:22:39;5.90;99.90
28520;DHT22;15732;48.534;20.382;2023-03-05T12:25:26;5.90;99.90
28520;DHT22;15732;48.534;20.382;2023-03-05T12:27:53;6.00;99.90
28520;DHT22;15732;48.534;20.382;2023-03-05T12:38:57;6.10;99.90
28520;DHT22;15732;48.534;20.382;2023-03-05T12:46:41;6.20;99.90
28520;DHT22;15732;48.534;20.382;2023-03-05T12:51:46;6.20;99.90
28520;DHT22;15732;48.534;20.382;2023-03-05T12:54:37;6.30;99.90
28520;DHT22;15732;48.534;20.382;2023-03-05T12:59:58;6.30;99.90
28520;DHT22;15732;48.534;20.382;2023-03-05T13:02:35;6.30;99.90
28520;DHT22;15732;48.534;20.382;2023-03-05T13:05:25;6.30;99.90
28520;DHT22;15732;48.534;20.382;2023-03-05T13:07:53;6.40;99.90
28520;DHT22;15732;48.534;20.382;2023-03-05T13:10:34;6.40;99.90
28520;DHT22;15732;48.534;20.382;2023-03-05T13:13:10;6.50;99.90
28520;DHT22;15732;48.534;20.382;2023-03-05T13:15:45;6.60;99.90
28520;DHT22;15732;48.534;20.382;2023-03-05T13:18:19;6.60;99.90
28520;DHT22;15732;48.534;20.382;2023-03-05T13:21:02;6.60;99.90
28520;DHT22;15732;48.534;20.382;2023-03-05T13:23:31;6.60;99.90
28520;DHT22;15732;48.534;20.382;2023-03-05T13:28:29;6.50;99.90
28520;DHT22;15732;48.534;20.382;2023-03-05T13:31:12;6.50;99.90
28520;DHT22;15732;48.534;20.382;2023-03-05T13:33:55;6.50;99.90
28520;DHT22;15732;48.534;20.382;2023-03-05T13:36:25;6.50;99.90
28520;DHT22;15732;48.534;20.382;2023-03-05T13:38:53;6.50;99.90
28520;DHT22;15732;48.534;20.382;2023-03-05T13:41:40;6.50;99.90
28520;DHT22;15732;48.534;20.382;2023-03-05T13:44:19;6.50;99.90
28520;DHT22;15732;48.534;20.382;2023-03-05T13:46:47;6.50;99.90
28520;DHT22;15732;48.534;20.382;2023-03-05T13:49:26;6.50;99.90
28520;DHT22;15732;48.534;20.382;2023-03-05T13:51:57;6.50;99.90
28520;DHT22;15732;48.534;20.382;2023-03-05T13:54:28;6.50;99.90
28520;DHT22;15732;48.534;20.382;2023-03-05T13:56:56;6.50;99.90
28520;DHT22;15732;48.534;20.382;2023-03-05T13:59:29;6.50;99.90
28520;DHT22;15732;48.534;20.382;2023-03-05T14:01:58;6.50;99.90
28520;DHT22;15732;48.534;20.382;2023-03-05T14:04:29;6.50;99.90
28520;DHT22;15732;48.534;20.382;2023-03-05T14:07:03;6.50;99.90
28520;DHT22;15732;48.534;20.382;2023-03-05T14:12:04;6.50;99.90
28520;DHT22;15732;48.534;20.382;2023-03-05T14:14:36;6.50;99.90
28520;DHT22;15732;48.534;20.382;2023-03-05T14:22:44;6.50;99.90
28520;DHT22;15732;48.534;20.382;2023-03-05T14:28:04;6.50;99.90
28520;DHT22;15732;48.534;20.382;2023-03-05T14:30:33;6.40;99.90
28520;DHT22;15732;48.534;20.382;2023-03-05T14:33:02;6.40;99.90
28520;DHT22;15732;48.534;20.382;2023-03-05T14:35:34;6.40;99.90
28520;DHT22;15732;48.534;20.382;2023-03-05T14:38:02;6.40;99.90
28520;DHT22;15732;48.534;20.382;2023-03-05T14:40:33;6.40;99.90
28520;DHT22;15732;48.534;20.382;2023-03-05T14:43:03;6.40;99.90
28520;DHT22;15732;48.534;20.382;2023-03-05T14:45:33;6.40;99.90
28520;DHT22;15732;48.534;20.382;2023-03-05T14:48:02;6.30;99.90
28520;DHT22;15732;48.534;20.382;2023-03-05T14:50:41;6.40;99.90
28520;DHT22;15732;48.534;20.382;2023-03-05T14:53:14;6.40;99.90
28520;DHT22;15732;48.534;20.382;2023-03-05T14:55:46;6.40;99.90
28520;DHT22;15732;48.534;20.382;2023-03-05T14:58:21;6.40;99.90
28520;DHT22;15732;48.534;20.382;2023-03-05T15:00:51;6.40;99.90
28520;DHT22;15732;48.534;20.382;2023-03-05T15:03:20;6.40;99.90
28520;DHT22;15732;48.534;20.382;2023-03-05T15:05:55;6.40;99.90
28520;DHT22;15732;48.534;20.382;2023-03-05T15:08:29;6.40;99.90
28520;DHT22;15732;48.534;20.382;2023-03-05T15:10:59;6.40;99.90
28520;DHT22;15732;48.534;20.382;2023-03-05T15:13:26;6.40;99.90
28520;DHT22;15732;48.534;20.382;2023-03-05T15:15:57;6.40;99.90
28520;DHT22;15732;48.534;20.382;2023-03-05T15:18:28;6.40;99.90
28520;DHT22;15732;48.534;20.382;2023-03-05T15:20:56;6.40;99.90
28520;DHT22;15732;48.534;20.382;2023-03-05T15:23:23;6.40;99.90
28520;DHT22;15732;48.534;20.382;2023-03-05T15:25:49;6.40;99.90
28520;DHT22;15732;48.534;20.382;2023-03-05T15:28:21;6.40;99.90
28520;DHT22;15732;48.534;20.382;2023-03-05T15:30:52;6.40;99.90
28520;DHT22;15732;48.534;20.382;2023-03-05T15:33:24;6.40;99.90
28520;DHT22;15732;48.534;20.382;2023-03-05T15:35:56;6.40;99.90
28520;DHT22;15732;48.534;20.382;2023-03-05T15:38:24;6.40;99.90
28520;DHT22;15732;48.534;20.382;2023-03-05T15:40:52;6.30;99.90
28520;DHT22;15732;48.534;20.382;2023-03-05T15:43:19;6.30;99.90
28520;DHT22;15732;48.534;20.382;2023-03-05T15:45:49;6.30;99.90
28520;DHT22;15732;48.534;20.382;2023-03-05T15:48:20;6.30;99.90
28520;DHT22;15732;48.534;20.382;2023-03-05T15:50:48;6.30;99.90
28520;DHT22;15732;48.534;20.382;2023-03-05T15:53:19;6.20;99.90
28520;DHT22;15732;48.534;20.382;2023-03-05T15:55:51;6.20;99.90
28520;DHT22;15732;48.534;20.382;2023-03-05T15:58:22;6.10;99.90
28520;DHT22;15732;48.534;20.382;2023-03-05T16:00:53;6.10;99.90
28520;DHT22;15732;48.534;20.382;2023-03-05T16:03:21;6.00;99.90
28520;DHT22;15732;48.534;20.382;2023-03-05T16:05:52;6.00;99.90
28520;DHT22;15732;48.534;20.382;2023-03-05T16:08:23;5.90;99.90
28520;DHT22;15732;48.534;20.382;2023-03-05T16:10:50;5.90;99.90
28520;DHT22;15732;48.534;20.382;2023-03-05T16:13:18;5.90;99.90
28520;DHT22;15732;48.534;20.382;2023-03-05T16:15:45;5.80;99.90
28520;DHT22;15732;48.534;20.382;2023-03-05T16:18:21;5.80;99.90
28520;DHT22;15732;48.534;20.382;2023-03-05T16:20:53;5.80;99.90
28520;DHT22;15732;48.534;20.382;2023-03-05T16:23:21;5.70;99.90
28520;DHT22;15732;48.534;20.382;2023-03-05T16:25:48;5.70;99.90
28520;DHT22;15732;48.534;20.382;2023-03-05T16:28:16;5.70;99.90
28520;DHT22;15732;48.534;20.382;2023-03-05T16:30:43;5.70;99.90
28520;DHT22;15732;48.534;20.382;2023-03-05T16:33:12;5.70;99.90
28520;DHT22;15732;48.534;20.382;2023-03-05T16:35:39;5.70;99.90
28520;DHT22;15732;48.534;20.382;2023-03-05T16:38:06;5.60;99.90
28520;DHT22;15732;48.534;20.382;2023-03-05T16:40:36;5.60;99.90
28520;DHT22;15732;48.534;20.382;2023-03-05T16:43:04;5.60;99.90
28520;DHT22;15732;48.534;20.382;2023-03-05T16:45:31;5.60;99.90
28520;DHT22;15732;48.534;20.382;2023-03-05T16:47:57;5.60;99.90
28520;DHT22;15732;48.534;20.382;2023-03-05T16:50:28;5.60;99.90
28520;DHT22;15732;48.534;20.382;2023-03-05T16:52:56;5.60;99.90
28520;DHT22;15732;48.534;20.382;2023-03-05T16:55:23;5.60;99.90
28520;DHT22;15732;48.534;20.382;2023-03-05T16:57:51;5.50;99.90
28520;DHT22;15732;48.534;20.382;2023-03-05T17:00:19;5.50;99.90
28520;DHT22;15732;48.534;20.382;2023-03-05T17:02:50;5.50;99.90
28520;DHT22;15732;48.534;20.382;2023-03-05T17:05:17;5.50;99.90
28520;DHT22;15732;48.534;20.382;2023-03-05T17:07:49;5.50;99.90
28520;DHT22;15732;48.534;20.382;2023-03-05T17:10:16;5.50;99.90
28520;DHT22;15732;48.534;20.382;2023-03-05T17:12:44;5.50;99.90
28520;DHT22;15732;48.534;20.382;2023-03-05T17:15:15;5.50;99.90